X  Cerrar Datos meteorológicos de aviación METAR     LIPX Verona-Villafranca Valerio Catullo Airport
Temperatura
9°C Temperatura
5°C Punto de rocío
76% Humedad



Viento
10 KM/H
6 MPH
3 M/S
5 NUDO



340°
NNO
Condiciones actuales

Claro Claro
Presión 1019.98 (hPa) - 30.12 (inHg)
Visibilidad 3.7 (milla) - 6 (km)
Aeropuerto
Código de aeropuerto LIPX

localidad: Verona-Villafranca Valerio Catullo Airport
Distancia: 0 (km)

Metar:
LIPX 212020Z 34005KT 330V030 6000 NSC 09/05 Q1020

Hora: 21-02-2024 20:20 CET